sensor_id;sensor_type;location;lat;lon;timestamp;P1;durP1;ratioP1;P2;durP2;ratioP2
60819;SDS011;46641;48.904;9.126;2022-08-21T00:04:48;2.55;;;2.20;;
60819;SDS011;46641;48.904;9.126;2022-08-21T00:09:40;2.97;;;2.47;;
60819;SDS011;46641;48.904;9.126;2022-08-21T00:14:30;3.30;;;2.13;;
60819;SDS011;46641;48.904;9.126;2022-08-21T00:19:21;2.50;;;2.10;;
60819;SDS011;46641;48.904;9.126;2022-08-21T00:24:14;3.67;;;2.43;;
60819;SDS011;46641;48.904;9.126;2022-08-21T00:29:04;2.85;;;2.38;;
60819;SDS011;46641;48.904;9.126;2022-08-21T00:33:57;4.43;;;2.70;;
60819;SDS011;46641;48.904;9.126;2022-08-21T00:38:47;4.63;;;3.10;;
60819;SDS011;46641;48.904;9.126;2022-08-21T00:43:38;3.10;;;2.80;;
60819;SDS011;46641;48.904;9.126;2022-08-21T00:48:29;2.90;;;2.60;;
60819;SDS011;46641;48.904;9.126;2022-08-21T00:53:20;2.77;;;2.47;;
60819;SDS011;46641;48.904;9.126;2022-08-21T00:58:11;2.60;;;2.40;;
60819;SDS011;46641;48.904;9.126;2022-08-21T01:03:06;4.10;;;3.00;;
60819;SDS011;46641;48.904;9.126;2022-08-21T01:08:00;3.00;;;2.60;;
60819;SDS011;46641;48.904;9.126;2022-08-21T01:12:51;3.80;;;2.90;;
60819;SDS011;46641;48.904;9.126;2022-08-21T01:17:44;2.73;;;2.50;;
60819;SDS011;46641;48.904;9.126;2022-08-21T01:22:35;2.60;;;2.33;;
60819;SDS011;46641;48.904;9.126;2022-08-21T01:27:25;2.63;;;2.40;;
60819;SDS011;46641;48.904;9.126;2022-08-21T01:32:16;4.30;;;2.60;;
60819;SDS011;46641;48.904;9.126;2022-08-21T01:37:09;4.03;;;2.50;;
60819;SDS011;46641;48.904;9.126;2022-08-21T01:42:00;3.43;;;2.73;;
60819;SDS011;46641;48.904;9.126;2022-08-21T01:46:51;2.77;;;2.57;;
60819;SDS011;46641;48.904;9.126;2022-08-21T01:51:42;3.57;;;2.63;;
60819;SDS011;46641;48.904;9.126;2022-08-21T01:56:40;2.90;;;2.47;;
60819;SDS011;46641;48.904;9.126;2022-08-21T02:01:33;2.70;;;2.50;;
60819;SDS011;46641;48.904;9.126;2022-08-21T02:06:23;2.60;;;2.40;;
60819;SDS011;46641;48.904;9.126;2022-08-21T02:11:14;3.87;;;2.43;;
60819;SDS011;46641;48.904;9.126;2022-08-21T02:16:04;3.13;;;2.50;;
60819;SDS011;46641;48.904;9.126;2022-08-21T02:20:56;3.03;;;2.73;;
60819;SDS011;46641;48.904;9.126;2022-08-21T02:25:46;4.13;;;2.50;;
60819;SDS011;46641;48.904;9.126;2022-08-21T02:30:38;2.97;;;2.20;;
60819;SDS011;46641;48.904;9.126;2022-08-21T02:35:31;2.80;;;2.57;;
60819;SDS011;46641;48.904;9.126;2022-08-21T02:40:23;3.37;;;2.87;;
60819;SDS011;46641;48.904;9.126;2022-08-21T02:45:16;2.70;;;2.50;;
60819;SDS011;46641;48.904;9.126;2022-08-21T02:50:07;3.53;;;2.63;;
60819;SDS011;46641;48.904;9.126;2022-08-21T02:54:58;3.40;;;2.80;;
60819;SDS011;46641;48.904;9.126;2022-08-21T02:59:48;2.72;;;2.45;;
60819;SDS011;46641;48.904;9.126;2022-08-21T03:04:39;3.13;;;2.20;;
60819;SDS011;46641;48.904;9.126;2022-08-21T03:09:29;3.30;;;2.50;;
60819;SDS011;46641;48.904;9.126;2022-08-21T03:14:19;2.60;;;2.20;;
60819;SDS011;46641;48.904;9.126;2022-08-21T03:19:10;3.17;;;2.55;;
60819;SDS011;46641;48.904;9.126;2022-08-21T03:24:00;4.90;;;2.97;;
60819;SDS011;46641;48.904;9.126;2022-08-21T03:28:51;3.80;;;3.20;;
60819;SDS011;46641;48.904;9.126;2022-08-21T03:33:41;4.40;;;2.47;;
60819;SDS011;46641;48.904;9.126;2022-08-21T03:38:32;2.57;;;2.37;;
60819;SDS011;46641;48.904;9.126;2022-08-21T03:43:24;2.60;;;2.40;;
60819;SDS011;46641;48.904;9.126;2022-08-21T03:48:15;4.63;;;2.70;;
60819;SDS011;46641;48.904;9.126;2022-08-21T03:53:06;2.70;;;2.50;;
60819;SDS011;46641;48.904;9.126;2022-08-21T03:57:56;3.33;;;2.30;;
60819;SDS011;46641;48.904;9.126;2022-08-21T04:02:47;2.73;;;2.53;;
60819;SDS011;46641;48.904;9.126;2022-08-21T04:07:37;2.50;;;2.30;;
60819;SDS011;46641;48.904;9.126;2022-08-21T04:12:27;3.53;;;2.80;;
60819;SDS011;46641;48.904;9.126;2022-08-21T04:17:18;2.70;;;2.13;;
60819;SDS011;46641;48.904;9.126;2022-08-21T04:22:08;4.13;;;2.47;;
60819;SDS011;46641;48.904;9.126;2022-08-21T04:26:58;4.33;;;2.67;;
60819;SDS011;46641;48.904;9.126;2022-08-21T04:31:49;3.67;;;2.60;;
60819;SDS011;46641;48.904;9.126;2022-08-21T04:36:39;5.77;;;2.93;;
60819;SDS011;46641;48.904;9.126;2022-08-21T04:41:29;2.87;;;2.60;;
60819;SDS011;46641;48.904;9.126;2022-08-21T04:46:20;3.73;;;3.03;;
60819;SDS011;46641;48.904;9.126;2022-08-21T04:51:17;4.33;;;2.90;;
60819;SDS011;46641;48.904;9.126;2022-08-21T04:56:14;3.00;;;2.70;;
60819;SDS011;46641;48.904;9.126;2022-08-21T05:01:11;4.80;;;2.83;;
60819;SDS011;46641;48.904;9.126;2022-08-21T05:06:05;3.80;;;2.93;;
60819;SDS011;46641;48.904;9.126;2022-08-21T05:10:58;3.87;;;2.97;;
60819;SDS011;46641;48.904;9.126;2022-08-21T05:15:49;3.03;;;2.83;;
60819;SDS011;46641;48.904;9.126;2022-08-21T05:20:39;5.33;;;3.17;;
60819;SDS011;46641;48.904;9.126;2022-08-21T05:25:29;4.97;;;3.03;;
60819;SDS011;46641;48.904;9.126;2022-08-21T05:30:20;3.10;;;2.88;;
60819;SDS011;46641;48.904;9.126;2022-08-21T05:35:10;4.63;;;3.10;;
60819;SDS011;46641;48.904;9.126;2022-08-21T05:40:01;3.90;;;2.90;;
60819;SDS011;46641;48.904;9.126;2022-08-21T05:44:53;3.40;;;3.10;;
60819;SDS011;46641;48.904;9.126;2022-08-21T05:49:44;4.00;;;3.40;;
60819;SDS011;46641;48.904;9.126;2022-08-21T05:54:36;3.77;;;3.20;;
60819;SDS011;46641;48.904;9.126;2022-08-21T05:59:27;5.97;;;3.40;;
60819;SDS011;46641;48.904;9.126;2022-08-21T06:04:17;3.80;;;3.40;;
60819;SDS011;46641;48.904;9.126;2022-08-21T06:09:08;5.17;;;3.57;;
60819;SDS011;46641;48.904;9.126;2022-08-21T06:13:58;4.33;;;3.93;;
60819;SDS011;46641;48.904;9.126;2022-08-21T06:18:49;4.67;;;3.80;;
60819;SDS011;46641;48.904;9.126;2022-08-21T06:23:40;8.13;;;3.87;;
60819;SDS011;46641;48.904;9.126;2022-08-21T06:28:31;4.83;;;4.23;;
60819;SDS011;46641;48.904;9.126;2022-08-21T06:33:22;5.47;;;3.77;;
60819;SDS011;46641;48.904;9.126;2022-08-21T06:38:13;5.57;;;4.23;;
60819;SDS011;46641;48.904;9.126;2022-08-21T06:43:14;5.50;;;3.53;;
60819;SDS011;46641;48.904;9.126;2022-08-21T06:48:06;4.43;;;3.20;;
60819;SDS011;46641;48.904;9.126;2022-08-21T06:53:07;4.37;;;2.90;;
60819;SDS011;46641;48.904;9.126;2022-08-21T06:57:59;6.70;;;3.10;;
60819;SDS011;46641;48.904;9.126;2022-08-21T07:02:50;4.43;;;3.40;;
60819;SDS011;46641;48.904;9.126;2022-08-21T07:07:40;4.30;;;3.30;;
60819;SDS011;46641;48.904;9.126;2022-08-21T07:12:31;5.93;;;3.40;;
60819;SDS011;46641;48.904;9.126;2022-08-21T07:17:21;3.77;;;3.17;;
60819;SDS011;46641;48.904;9.126;2022-08-21T07:22:11;2.87;;;2.67;;
60819;SDS011;46641;48.904;9.126;2022-08-21T07:27:03;4.63;;;3.20;;
60819;SDS011;46641;48.904;9.126;2022-08-21T07:31:53;4.43;;;3.00;;
60819;SDS011;46641;48.904;9.126;2022-08-21T07:36:43;5.90;;;3.50;;
60819;SDS011;46641;48.904;9.126;2022-08-21T07:41:34;5.23;;;3.20;;
60819;SDS011;46641;48.904;9.126;2022-08-21T07:46:25;7.07;;;3.73;;
60819;SDS011;46641;48.904;9.126;2022-08-21T07:51:17;7.83;;;4.13;;
60819;SDS011;46641;48.904;9.126;2022-08-21T07:56:08;5.77;;;3.20;;
60819;SDS011;46641;48.904;9.126;2022-08-21T08:01:00;6.23;;;4.33;;
60819;SDS011;46641;48.904;9.126;2022-08-21T08:05:51;5.90;;;4.33;;
60819;SDS011;46641;48.904;9.126;2022-08-21T08:10:41;7.50;;;3.97;;
60819;SDS011;46641;48.904;9.126;2022-08-21T08:15:32;5.00;;;3.37;;
60819;SDS011;46641;48.904;9.126;2022-08-21T08:20:23;4.37;;;3.30;;
60819;SDS011;46641;48.904;9.126;2022-08-21T08:25:16;6.57;;;3.47;;
60819;SDS011;46641;48.904;9.126;2022-08-21T08:30:08;6.60;;;4.00;;
60819;SDS011;46641;48.904;9.126;2022-08-21T08:35:00;6.40;;;4.00;;
60819;SDS011;46641;48.904;9.126;2022-08-21T08:39:51;7.80;;;4.73;;
60819;SDS011;46641;48.904;9.126;2022-08-21T08:44:45;5.37;;;3.87;;
60819;SDS011;46641;48.904;9.126;2022-08-21T08:49:37;6.57;;;3.17;;
60819;SDS011;46641;48.904;9.126;2022-08-21T08:54:33;5.17;;;4.20;;
60819;SDS011;46641;48.904;9.126;2022-08-21T08:59:34;5.47;;;4.30;;
60819;SDS011;46641;48.904;9.126;2022-08-21T09:04:29;4.27;;;3.80;;
60819;SDS011;46641;48.904;9.126;2022-08-21T09:14:32;5.90;;;3.90;;
60819;SDS011;46641;48.904;9.126;2022-08-21T09:19:49;5.07;;;3.40;;
60819;SDS011;46641;48.904;9.126;2022-08-21T09:30:09;5.17;;;3.77;;
60819;SDS011;46641;48.904;9.126;2022-08-21T09:35:06;6.70;;;4.13;;
60819;SDS011;46641;48.904;9.126;2022-08-21T09:40:03;5.63;;;3.80;;
60819;SDS011;46641;48.904;9.126;2022-08-21T09:50:09;7.00;;;4.10;;
60819;SDS011;46641;48.904;9.126;2022-08-21T09:55:02;5.17;;;3.50;;
60819;SDS011;46641;48.904;9.126;2022-08-21T10:05:19;6.13;;;3.30;;
60819;SDS011;46641;48.904;9.126;2022-08-21T10:10:49;5.77;;;4.30;;
60819;SDS011;46641;48.904;9.126;2022-08-21T10:20:31;6.30;;;4.13;;
60819;SDS011;46641;48.904;9.126;2022-08-21T10:30:25;6.67;;;3.90;;
60819;SDS011;46641;48.904;9.126;2022-08-21T10:35:26;4.67;;;3.60;;
60819;SDS011;46641;48.904;9.126;2022-08-21T10:40:40;5.17;;;3.30;;
60819;SDS011;46641;48.904;9.126;2022-08-21T10:50:55;6.00;;;3.27;;
60819;SDS011;46641;48.904;9.126;2022-08-21T10:56:12;4.50;;;2.80;;
60819;SDS011;46641;48.904;9.126;2022-08-21T11:01:20;4.53;;;3.17;;
60819;SDS011;46641;48.904;9.126;2022-08-21T11:06:21;3.90;;;3.03;;
60819;SDS011;46641;48.904;9.126;2022-08-21T11:11:18;5.07;;;3.10;;
60819;SDS011;46641;48.904;9.126;2022-08-21T11:21:35;3.33;;;2.43;;
60819;SDS011;46641;48.904;9.126;2022-08-21T11:26:36;6.43;;;3.67;;
60819;SDS011;46641;48.904;9.126;2022-08-21T11:31:43;4.17;;;3.23;;
60819;SDS011;46641;48.904;9.126;2022-08-21T11:37:09;3.67;;;2.60;;
60819;SDS011;46641;48.904;9.126;2022-08-21T11:42:29;4.00;;;2.72;;
60819;SDS011;46641;48.904;9.126;2022-08-21T11:47:32;5.13;;;3.35;;
60819;SDS011;46641;48.904;9.126;2022-08-21T11:52:38;4.03;;;2.70;;
60819;SDS011;46641;48.904;9.126;2022-08-21T11:57:39;5.53;;;3.25;;
60819;SDS011;46641;48.904;9.126;2022-08-21T12:02:33;4.18;;;2.58;;
60819;SDS011;46641;48.904;9.126;2022-08-21T12:07:33;4.68;;;3.08;;
60819;SDS011;46641;48.904;9.126;2022-08-21T12:12:32;3.95;;;3.03;;
60819;SDS011;46641;48.904;9.126;2022-08-21T12:17:34;3.50;;;2.63;;
60819;SDS011;46641;48.904;9.126;2022-08-21T12:22:39;3.47;;;2.90;;
60819;SDS011;46641;48.904;9.126;2022-08-21T12:27:40;4.72;;;2.63;;
60819;SDS011;46641;48.904;9.126;2022-08-21T12:42:41;3.20;;;2.72;;
60819;SDS011;46641;48.904;9.126;2022-08-21T12:47:43;4.70;;;2.83;;
60819;SDS011;46641;48.904;9.126;2022-08-21T12:52:41;3.47;;;3.17;;
60819;SDS011;46641;48.904;9.126;2022-08-21T12:57:39;4.40;;;2.60;;
60819;SDS011;46641;48.904;9.126;2022-08-21T13:02:33;4.28;;;2.83;;
60819;SDS011;46641;48.904;9.126;2022-08-21T13:07:29;3.90;;;3.05;;
60819;SDS011;46641;48.904;9.126;2022-08-21T13:12:23;3.95;;;2.72;;
60819;SDS011;46641;48.904;9.126;2022-08-21T13:17:16;3.58;;;2.50;;
60819;SDS011;46641;48.904;9.126;2022-08-21T13:22:14;3.85;;;3.30;;
60819;SDS011;46641;48.904;9.126;2022-08-21T13:27:15;2.88;;;2.65;;
60819;SDS011;46641;48.904;9.126;2022-08-21T13:32:13;4.68;;;3.20;;
60819;SDS011;46641;48.904;9.126;2022-08-21T13:37:11;3.00;;;2.70;;
60819;SDS011;46641;48.904;9.126;2022-08-21T13:42:03;3.20;;;2.90;;
60819;SDS011;46641;48.904;9.126;2022-08-21T13:47:00;3.55;;;2.95;;
60819;SDS011;46641;48.904;9.126;2022-08-21T13:51:52;4.10;;;2.75;;
60819;SDS011;46641;48.904;9.126;2022-08-21T13:56:44;3.65;;;3.03;;
60819;SDS011;46641;48.904;9.126;2022-08-21T14:01:37;3.83;;;3.03;;
60819;SDS011;46641;48.904;9.126;2022-08-21T14:06:38;3.53;;;3.15;;
60819;SDS011;46641;48.904;9.126;2022-08-21T14:11:32;5.85;;;2.95;;
60819;SDS011;46641;48.904;9.126;2022-08-21T14:16:25;4.03;;;2.80;;
60819;SDS011;46641;48.904;9.126;2022-08-21T14:21:29;5.68;;;3.25;;
60819;SDS011;46641;48.904;9.126;2022-08-21T14:26:28;4.78;;;2.92;;
60819;SDS011;46641;48.904;9.126;2022-08-21T14:31:19;2.97;;;2.67;;
60819;SDS011;46641;48.904;9.126;2022-08-21T14:36:11;3.92;;;2.97;;
60819;SDS011;46641;48.904;9.126;2022-08-21T14:41:08;5.65;;;3.00;;
60819;SDS011;46641;48.904;9.126;2022-08-21T14:46:02;4.18;;;3.17;;
60819;SDS011;46641;48.904;9.126;2022-08-21T14:50:52;4.28;;;3.10;;
60819;SDS011;46641;48.904;9.126;2022-08-21T14:55:42;3.35;;;3.05;;
60819;SDS011;46641;48.904;9.126;2022-08-21T15:00:51;3.08;;;2.42;;
60819;SDS011;46641;48.904;9.126;2022-08-21T15:05:43;4.82;;;2.90;;
60819;SDS011;46641;48.904;9.126;2022-08-21T15:10:34;3.30;;;3.00;;
60819;SDS011;46641;48.904;9.126;2022-08-21T15:15:25;5.18;;;3.05;;
60819;SDS011;46641;48.904;9.126;2022-08-21T15:20:15;5.70;;;3.10;;
60819;SDS011;46641;48.904;9.126;2022-08-21T15:25:06;6.53;;;3.40;;
60819;SDS011;46641;48.904;9.126;2022-08-21T15:29:56;4.60;;;3.40;;
60819;SDS011;46641;48.904;9.126;2022-08-21T15:34:47;5.53;;;2.97;;
60819;SDS011;46641;48.904;9.126;2022-08-21T15:39:37;5.30;;;3.20;;
60819;SDS011;46641;48.904;9.126;2022-08-21T15:44:28;6.30;;;3.00;;
60819;SDS011;46641;48.904;9.126;2022-08-21T15:49:18;3.22;;;2.97;;
60819;SDS011;46641;48.904;9.126;2022-08-21T15:54:09;4.88;;;3.15;;
60819;SDS011;46641;48.904;9.126;2022-08-21T15:59:00;3.75;;;2.85;;
60819;SDS011;46641;48.904;9.126;2022-08-21T16:03:54;3.78;;;3.30;;
60819;SDS011;46641;48.904;9.126;2022-08-21T16:08:45;3.80;;;2.80;;
60819;SDS011;46641;48.904;9.126;2022-08-21T16:13:36;5.28;;;3.22;;
60819;SDS011;46641;48.904;9.126;2022-08-21T16:18:32;3.47;;;3.00;;
60819;SDS011;46641;48.904;9.126;2022-08-21T16:23:22;4.32;;;3.40;;
60819;SDS011;46641;48.904;9.126;2022-08-21T16:28:13;3.92;;;3.25;;
60819;SDS011;46641;48.904;9.126;2022-08-21T16:33:06;3.72;;;3.08;;
60819;SDS011;46641;48.904;9.126;2022-08-21T16:38:01;4.18;;;3.70;;
60819;SDS011;46641;48.904;9.126;2022-08-21T16:42:51;3.92;;;2.85;;
60819;SDS011;46641;48.904;9.126;2022-08-21T16:47:42;5.25;;;3.58;;
60819;SDS011;46641;48.904;9.126;2022-08-21T16:52:34;3.33;;;3.03;;
60819;SDS011;46641;48.904;9.126;2022-08-21T16:57:24;4.07;;;3.13;;
60819;SDS011;46641;48.904;9.126;2022-08-21T17:02:28;5.50;;;3.60;;
60819;SDS011;46641;48.904;9.126;2022-08-21T17:07:21;4.97;;;2.90;;
60819;SDS011;46641;48.904;9.126;2022-08-21T17:12:12;3.58;;;2.97;;
60819;SDS011;46641;48.904;9.126;2022-08-21T17:17:04;3.85;;;3.00;;
60819;SDS011;46641;48.904;9.126;2022-08-21T17:21:57;3.55;;;2.60;;
60819;SDS011;46641;48.904;9.126;2022-08-21T17:26:47;4.97;;;3.70;;
60819;SDS011;46641;48.904;9.126;2022-08-21T17:31:38;4.32;;;3.38;;
60819;SDS011;46641;48.904;9.126;2022-08-21T17:36:29;3.20;;;2.72;;
60819;SDS011;46641;48.904;9.126;2022-08-21T17:41:20;3.20;;;2.70;;
60819;SDS011;46641;48.904;9.126;2022-08-21T17:46:16;2.80;;;2.60;;
60819;SDS011;46641;48.904;9.126;2022-08-21T17:51:09;4.88;;;2.92;;
60819;SDS011;46641;48.904;9.126;2022-08-21T17:56:00;3.58;;;2.65;;
60819;SDS011;46641;48.904;9.126;2022-08-21T18:00:51;4.20;;;2.90;;
60819;SDS011;46641;48.904;9.126;2022-08-21T18:05:44;6.53;;;2.70;;
60819;SDS011;46641;48.904;9.126;2022-08-21T18:10:37;4.80;;;3.05;;
60819;SDS011;46641;48.904;9.126;2022-08-21T18:15:29;3.97;;;3.33;;
60819;SDS011;46641;48.904;9.126;2022-08-21T18:20:20;5.13;;;2.97;;
60819;SDS011;46641;48.904;9.126;2022-08-21T18:25:12;4.35;;;3.00;;
60819;SDS011;46641;48.904;9.126;2022-08-21T18:30:03;3.72;;;2.70;;
60819;SDS011;46641;48.904;9.126;2022-08-21T18:34:54;3.75;;;2.60;;
60819;SDS011;46641;48.904;9.126;2022-08-21T18:39:46;5.78;;;3.40;;
60819;SDS011;46641;48.904;9.126;2022-08-21T18:44:37;4.45;;;3.28;;
60819;SDS011;46641;48.904;9.126;2022-08-21T18:49:29;5.00;;;3.15;;
60819;SDS011;46641;48.904;9.126;2022-08-21T18:54:19;6.78;;;3.30;;
60819;SDS011;46641;48.904;9.126;2022-08-21T18:59:10;5.05;;;3.33;;
60819;SDS011;46641;48.904;9.126;2022-08-21T19:04:03;4.50;;;3.28;;
60819;SDS011;46641;48.904;9.126;2022-08-21T19:08:54;4.88;;;3.15;;
60819;SDS011;46641;48.904;9.126;2022-08-21T19:13:45;4.93;;;2.72;;
60819;SDS011;46641;48.904;9.126;2022-08-21T19:18:37;2.47;;;2.28;;
60819;SDS011;46641;48.904;9.126;2022-08-21T19:23:29;7.03;;;4.00;;
60819;SDS011;46641;48.904;9.126;2022-08-21T19:28:21;5.10;;;3.53;;
60819;SDS011;46641;48.904;9.126;2022-08-21T19:33:21;4.57;;;3.25;;
60819;SDS011;46641;48.904;9.126;2022-08-21T19:38:15;6.70;;;3.10;;
60819;SDS011;46641;48.904;9.126;2022-08-21T19:43:05;5.30;;;3.00;;
60819;SDS011;46641;48.904;9.126;2022-08-21T19:47:58;3.33;;;3.03;;
60819;SDS011;46641;48.904;9.126;2022-08-21T19:52:49;6.70;;;3.53;;
60819;SDS011;46641;48.904;9.126;2022-08-21T19:57:39;6.93;;;3.03;;
60819;SDS011;46641;48.904;9.126;2022-08-21T20:02:29;5.40;;;3.43;;
60819;SDS011;46641;48.904;9.126;2022-08-21T20:07:20;6.23;;;3.20;;
60819;SDS011;46641;48.904;9.126;2022-08-21T20:12:11;5.63;;;3.43;;
60819;SDS011;46641;48.904;9.126;2022-08-21T20:17:05;5.40;;;3.40;;
60819;SDS011;46641;48.904;9.126;2022-08-21T20:21:59;6.87;;;3.87;;
60819;SDS011;46641;48.904;9.126;2022-08-21T20:26:50;5.87;;;3.10;;
60819;SDS011;46641;48.904;9.126;2022-08-21T20:31:40;3.87;;;3.17;;
60819;SDS011;46641;48.904;9.126;2022-08-21T20:36:31;6.73;;;3.80;;
60819;SDS011;46641;48.904;9.126;2022-08-21T20:41:22;6.47;;;3.20;;
60819;SDS011;46641;48.904;9.126;2022-08-21T20:46:15;5.47;;;3.23;;
60819;SDS011;46641;48.904;9.126;2022-08-21T20:56:12;5.93;;;3.10;;
60819;SDS011;46641;48.904;9.126;2022-08-21T21:01:09;6.20;;;4.10;;
60819;SDS011;46641;48.904;9.126;2022-08-21T21:06:00;5.10;;;3.30;;
60819;SDS011;46641;48.904;9.126;2022-08-21T21:11:14;4.60;;;3.30;;
60819;SDS011;46641;48.904;9.126;2022-08-21T21:21:44;4.43;;;3.50;;
60819;SDS011;46641;48.904;9.126;2022-08-21T21:26:41;8.13;;;3.43;;
60819;SDS011;46641;48.904;9.126;2022-08-21T21:31:43;7.43;;;4.10;;
60819;SDS011;46641;48.904;9.126;2022-08-21T21:36:36;4.57;;;3.17;;
60819;SDS011;46641;48.904;9.126;2022-08-21T22:07:42;4.37;;;3.43;;
60819;SDS011;46641;48.904;9.126;2022-08-21T22:13:02;5.83;;;3.87;;
60819;SDS011;46641;48.904;9.126;2022-08-21T22:18:05;3.80;;;3.23;;
60819;SDS011;46641;48.904;9.126;2022-08-21T22:23:00;3.77;;;3.33;;
60819;SDS011;46641;48.904;9.126;2022-08-21T22:27:59;4.03;;;3.30;;
60819;SDS011;46641;48.904;9.126;2022-08-21T22:32:57;3.80;;;3.23;;
60819;SDS011;46641;48.904;9.126;2022-08-21T22:42:38;4.83;;;3.53;;
60819;SDS011;46641;48.904;9.126;2022-08-21T22:52:31;5.40;;;3.50;;
60819;SDS011;46641;48.904;9.126;2022-08-21T22:57:27;4.50;;;3.47;;
60819;SDS011;46641;48.904;9.126;2022-08-21T23:12:37;3.60;;;3.23;;
60819;SDS011;46641;48.904;9.126;2022-08-21T23:17:35;4.17;;;3.33;;
60819;SDS011;46641;48.904;9.126;2022-08-21T23:22:38;4.00;;;3.23;;
60819;SDS011;46641;48.904;9.126;2022-08-21T23:33:01;3.60;;;3.30;;
60819;SDS011;46641;48.904;9.126;2022-08-21T23:38:08;4.80;;;3.37;;
60819;SDS011;46641;48.904;9.126;2022-08-21T23:53:45;4.27;;;3.80;;
60819;SDS011;46641;48.904;9.126;2022-08-21T23:59:02;6.63;;;3.83;;
